createdAt,value
2017-09-22T00:00:50.846Z,11.30
2017-09-22T00:03:18.816Z,11.30
2017-09-22T00:05:46.679Z,11.40
2017-09-22T00:08:14.545Z,11.40
2017-09-22T00:10:42.413Z,11.30
2017-09-22T00:13:10.278Z,11.40
2017-09-22T00:15:38.146Z,11.40
2017-09-22T00:18:06.013Z,11.40
2017-09-22T00:20:33.881Z,11.40
2017-09-22T00:23:01.748Z,11.40
2017-09-22T00:25:29.615Z,11.40
2017-09-22T00:27:57.523Z,11.40
2017-09-22T00:30:26.169Z,11.40
2017-09-22T00:32:54.036Z,11.30
2017-09-22T00:35:21.903Z,11.30
2017-09-22T00:37:49.771Z,11.30
2017-09-22T00:40:17.638Z,11.30
2017-09-22T00:42:45.507Z,11.30
2017-09-22T00:45:13.373Z,11.30
2017-09-22T00:47:41.240Z,11.30
2017-09-22T00:50:09.109Z,11.20
2017-09-22T00:52:36.975Z,11.30
2017-09-22T00:55:04.846Z,11.20
2017-09-22T00:57:32.709Z,11.20
2017-09-22T01:00:00.577Z,11.30
2017-09-22T01:02:28.444Z,11.30
2017-09-22T01:04:56.311Z,11.30
2017-09-22T01:07:24.063Z,11.20
2017-09-22T01:09:51.944Z,11.20
2017-09-22T01:12:19.810Z,11.20
2017-09-22T01:14:47.677Z,11.20
2017-09-22T01:17:15.545Z,11.20
2017-09-22T01:19:43.446Z,11.20
2017-09-22T01:22:12.099Z,11.20
2017-09-22T01:24:39.965Z,11.10
2017-09-22T01:27:07.833Z,11.10
2017-09-22T01:29:35.700Z,11.20
2017-09-22T01:32:03.497Z,11.10
2017-09-22T01:34:31.334Z,11.10
2017-09-22T01:36:59.070Z,11.00
2017-09-22T01:39:26.798Z,11.00
2017-09-22T01:41:55.448Z,11.00
2017-09-22T01:44:23.315Z,11.00
2017-09-22T01:46:51.181Z,11.00
2017-09-22T01:49:19.049Z,11.00
2017-09-22T01:51:46.916Z,11.00
2017-09-22T01:54:14.784Z,11.00
2017-09-22T01:56:42.651Z,11.00
2017-09-22T01:59:10.517Z,11.00
2017-09-22T02:01:38.385Z,11.00
2017-09-22T02:04:06.253Z,11.00
2017-09-22T02:06:34.120Z,11.00
2017-09-22T02:09:01.987Z,10.90
2017-09-22T02:11:29.855Z,10.90
2017-09-22T02:13:57.825Z,10.90
2017-09-22T02:16:25.691Z,10.90
2017-09-22T02:18:53.486Z,10.80
2017-09-22T02:21:21.324Z,10.90
2017-09-22T02:23:49.195Z,10.80
2017-09-22T02:26:17.058Z,10.90
2017-09-22T02:28:44.926Z,10.90
2017-09-22T02:31:12.794Z,10.80
2017-09-22T02:33:40.661Z,10.80
2017-09-22T02:36:08.529Z,10.80
2017-09-22T02:38:36.395Z,10.80
2017-09-22T02:41:04.117Z,10.80
2017-09-22T02:43:31.876Z,10.70
2017-09-22T02:45:59.690Z,10.70
2017-09-22T02:48:27.557Z,10.70
2017-09-22T02:50:55.634Z,10.70
2017-09-22T02:53:23.513Z,10.70
2017-09-22T02:55:51.380Z,10.60
2017-09-22T02:58:19.233Z,10.60
2017-09-22T03:00:47.100Z,10.60
2017-09-22T03:03:14.971Z,10.60
2017-09-22T03:05:42.837Z,10.50
2017-09-22T03:08:10.703Z,10.50
2017-09-22T03:10:38.570Z,10.50
2017-09-22T03:13:06.437Z,10.50
2017-09-22T03:15:34.302Z,10.50
2017-09-22T03:18:02.374Z,10.50
2017-09-22T03:20:30.242Z,10.50
2017-09-22T03:22:58.110Z,10.50
2017-09-22T03:25:25.838Z,10.50
2017-09-22T03:27:53.571Z,10.50
2017-09-22T03:30:22.058Z,10.50
2017-09-22T03:32:50.705Z,10.50
2017-09-22T03:35:18.572Z,10.50
2017-09-22T03:37:46.439Z,10.50
2017-09-22T03:40:14.307Z,10.50
2017-09-22T03:42:42.174Z,10.40
2017-09-22T03:45:10.042Z,10.50
2017-09-22T03:47:37.914Z,10.50
2017-09-22T03:50:05.776Z,10.50
2017-09-22T03:52:33.644Z,10.50
2017-09-22T03:55:01.511Z,10.50
2017-09-22T03:57:29.378Z,10.50
2017-09-22T03:59:57.245Z,10.60
2017-09-22T04:02:25.140Z,10.60
2017-09-22T04:04:53.800Z,10.60
2017-09-22T04:07:21.667Z,10.60
2017-09-22T04:09:49.534Z,10.60
2017-09-22T04:12:17.401Z,10.70
2017-09-22T04:14:45.268Z,10.70
2017-09-22T04:17:13.136Z,10.70
2017-09-22T04:19:41.003Z,10.70
2017-09-22T04:22:08.870Z,10.70
2017-09-22T04:24:36.942Z,10.70
2017-09-22T04:27:04.810Z,10.70
2017-09-22T04:29:32.779Z,10.80
2017-09-22T04:32:00.646Z,10.90
2017-09-22T04:37:16.759Z,10.90
2017-09-22T04:39:44.626Z,11.00
2017-09-22T04:42:12.596Z,11.00
2017-09-22T04:44:40.463Z,11.00
2017-09-22T04:47:08.331Z,11.00
2017-09-22T04:49:36.198Z,11.10
2017-09-22T04:52:04.066Z,11.20
2017-09-22T04:54:31.932Z,11.20
2017-09-22T04:56:59.801Z,11.20
2017-09-22T04:59:27.667Z,11.20
2017-09-22T05:01:55.534Z,11.30
2017-09-22T05:04:23.406Z,11.30
2017-09-22T05:06:51.270Z,11.30
2017-09-22T05:09:19.138Z,11.20
2017-09-22T05:11:47.107Z,11.30
2017-09-22T05:14:14.974Z,11.20
2017-09-22T05:16:42.841Z,11.20
2017-09-22T05:19:10.708Z,11.20
2017-09-22T05:21:38.575Z,11.20
2017-09-22T05:24:06.444Z,11.20
2017-09-22T05:26:34.311Z,11.20
2017-09-22T05:29:02.280Z,11.20
2017-09-22T05:31:30.146Z,11.20
2017-09-22T05:33:58.014Z,11.20
2017-09-22T05:36:25.882Z,11.20
2017-09-22T05:38:53.749Z,11.20
2017-09-22T05:41:21.616Z,11.20
2017-09-22T05:43:49.484Z,11.20
2017-09-22T05:46:17.356Z,11.20
2017-09-22T05:48:45.218Z,11.20
2017-09-22T05:51:13.085Z,11.20
2017-09-22T05:53:40.961Z,11.20
2017-09-22T05:56:08.825Z,11.20
2017-09-22T05:58:36.691Z,11.20
2017-09-22T06:01:04.556Z,11.30
2017-09-22T06:03:32.427Z,11.20
2017-09-22T06:06:00.294Z,11.30
2017-09-22T06:08:28.159Z,11.20
2017-09-22T06:10:56.027Z,11.20
2017-09-22T06:13:23.893Z,11.30
2017-09-22T06:15:51.758Z,11.30
2017-09-22T06:18:19.626Z,11.10
2017-09-22T06:20:47.493Z,11.10
2017-09-22T06:23:15.360Z,11.30
2017-09-22T06:25:43.228Z,11.70
2017-09-22T06:28:11.096Z,12.00
2017-09-22T06:30:38.963Z,12.40
2017-09-22T06:33:06.830Z,12.80
2017-09-22T06:35:34.696Z,13.20
2017-09-22T06:38:02.564Z,13.50
2017-09-22T06:40:30.431Z,13.90
2017-09-22T06:42:58.298Z,14.40
2017-09-22T06:45:26.166Z,14.70
2017-09-22T06:47:54.034Z,15.00
2017-09-22T06:50:21.902Z,15.30
2017-09-22T06:52:49.768Z,15.40
2017-09-22T06:55:17.840Z,15.50
2017-09-22T06:57:45.708Z,15.90
2017-09-22T07:00:13.575Z,16.90
2017-09-22T07:02:41.442Z,18.50
2017-09-22T07:05:09.310Z,20.20
2017-09-22T07:07:37.176Z,21.50
2017-09-22T07:10:05.045Z,22.70
2017-09-22T07:12:32.911Z,23.80
2017-09-22T07:15:00.779Z,24.70
2017-09-22T07:17:28.646Z,25.60
2017-09-22T07:19:56.616Z,26.50
2017-09-22T07:22:24.484Z,27.30
2017-09-22T07:24:52.353Z,28.10
2017-09-22T07:27:20.234Z,28.70
2017-09-22T07:29:48.085Z,29.00
2017-09-22T07:32:15.952Z,29.10
2017-09-22T07:34:43.820Z,28.80
2017-09-22T07:37:11.688Z,27.80
2017-09-22T07:39:39.554Z,26.80
2017-09-22T07:42:07.422Z,25.80
2017-09-22T07:44:35.289Z,25.40
2017-09-22T07:47:03.156Z,25.40
2017-09-22T07:49:31.023Z,25.30
2017-09-22T07:51:58.892Z,25.20
2017-09-22T07:54:26.758Z,25.20
2017-09-22T07:56:54.629Z,25.30
2017-09-22T07:59:22.493Z,25.40
2017-09-22T08:01:50.361Z,25.70
2017-09-22T08:04:18.228Z,25.50
2017-09-22T08:06:46.095Z,25.70
2017-09-22T08:09:13.899Z,25.50
2017-09-22T08:11:42.548Z,25.20
2017-09-22T08:14:10.415Z,25.10
2017-09-22T08:16:38.383Z,25.00
2017-09-22T08:19:06.249Z,24.90
2017-09-22T08:21:34.117Z,24.70
2017-09-22T08:24:02.088Z,23.90
2017-09-22T08:26:29.954Z,23.40
2017-09-22T08:28:57.824Z,23.20
2017-09-22T08:31:25.693Z,22.90
2017-09-22T08:33:53.556Z,22.20
2017-09-22T08:36:21.525Z,21.80
2017-09-22T08:38:49.392Z,21.50
2017-09-22T08:41:17.363Z,21.40
2017-09-22T08:43:45.230Z,21.50
2017-09-22T08:46:13.097Z,21.40
2017-09-22T08:48:40.965Z,21.40
2017-09-22T08:51:08.832Z,21.60
2017-09-22T08:53:36.699Z,21.90
2017-09-22T08:56:04.566Z,22.00
2017-09-22T08:58:32.437Z,21.90
2017-09-22T09:01:00.304Z,21.60
2017-09-22T09:03:28.202Z,21.30
2017-09-22T09:05:56.855Z,20.10
2017-09-22T09:08:24.731Z,20.10
2017-09-22T09:10:52.532Z,19.80
2017-09-22T09:13:21.175Z,19.90
2017-09-22T09:15:49.045Z,20.00
2017-09-22T09:18:16.908Z,20.10
2017-09-22T09:20:44.774Z,20.20
2017-09-22T09:23:12.602Z,20.60
2017-09-22T09:25:40.411Z,21.10
2017-09-22T09:28:08.272Z,21.50
2017-09-22T09:30:36.144Z,21.90
2017-09-22T09:33:04.008Z,22.30
2017-09-22T09:35:31.875Z,22.60
2017-09-22T09:37:59.742Z,22.80
2017-09-22T09:40:27.640Z,23.10
2017-09-22T09:42:56.296Z,23.40
2017-09-22T09:45:24.162Z,23.40
2017-09-22T09:47:52.030Z,23.60
2017-09-22T09:50:19.898Z,23.50
2017-09-22T09:52:47.765Z,23.40
2017-09-22T09:55:15.633Z,23.50
2017-09-22T09:57:43.601Z,23.70
2017-09-22T10:00:11.469Z,23.80
2017-09-22T10:02:39.335Z,24.00
2017-09-22T10:05:07.203Z,24.10
2017-09-22T10:07:35.070Z,24.20
2017-09-22T10:10:02.938Z,24.00
2017-09-22T10:12:30.805Z,23.80
2017-09-22T10:14:58.877Z,23.50
2017-09-22T10:17:26.744Z,23.60
2017-09-22T10:19:54.614Z,23.80
2017-09-22T10:22:22.479Z,23.90
2017-09-22T10:24:50.346Z,24.20
2017-09-22T10:27:18.214Z,24.40
2017-09-22T10:29:46.087Z,24.60
2017-09-22T10:32:13.955Z,24.80
2017-09-22T10:34:41.815Z,25.10
2017-09-22T10:37:09.684Z,25.30
2017-09-22T10:39:37.653Z,24.90
2017-09-22T10:42:05.519Z,24.90
2017-09-22T10:44:33.386Z,24.80
2017-09-22T10:47:01.254Z,24.90
2017-09-22T10:49:29.121Z,25.00
2017-09-22T10:51:56.989Z,25.00
2017-09-22T10:54:24.849Z,25.10
2017-09-22T10:56:52.725Z,25.40
2017-09-22T10:59:20.590Z,25.60
2017-09-22T11:01:48.458Z,25.80
2017-09-22T11:04:16.324Z,25.50
2017-09-22T11:06:44.191Z,25.30
2017-09-22T11:09:12.059Z,24.80
2017-09-22T11:11:39.927Z,24.80
2017-09-22T11:14:07.797Z,24.30
2017-09-22T11:16:35.665Z,24.60
2017-09-22T11:19:03.530Z,24.70
2017-09-22T11:21:31.397Z,24.80
2017-09-22T11:23:59.264Z,25.10
2017-09-22T11:26:27.130Z,25.40
2017-09-22T11:28:54.997Z,25.30
2017-09-22T11:31:22.660Z,25.50
2017-09-22T11:33:50.016Z,25.40
2017-09-22T11:36:17.985Z,25.20
2017-09-22T11:38:45.853Z,24.90
2017-09-22T11:41:13.719Z,24.50
2017-09-22T11:43:41.586Z,24.20
2017-09-22T11:46:09.454Z,24.10
2017-09-22T11:48:37.321Z,24.20
2017-09-22T11:51:05.189Z,24.30
2017-09-22T11:53:33.056Z,24.50
2017-09-22T11:56:00.923Z,24.70
2017-09-22T11:58:28.789Z,24.70
2017-09-22T12:00:56.760Z,24.90
2017-09-22T12:03:24.627Z,24.90
2017-09-22T12:05:52.494Z,25.00
2017-09-22T12:08:20.365Z,25.10
2017-09-22T12:10:48.234Z,25.00
2017-09-22T12:13:16.101Z,25.10
2017-09-22T12:15:43.975Z,25.20
2017-09-22T12:18:11.836Z,25.50
2017-09-22T12:20:39.699Z,25.60
2017-09-22T12:23:07.570Z,25.60
2017-09-22T12:25:35.435Z,25.40
2017-09-22T12:28:03.302Z,25.20
2017-09-22T12:30:31.168Z,24.80
2017-09-22T12:32:59.034Z,24.50
2017-09-22T12:35:26.903Z,24.60
2017-09-22T12:37:54.769Z,24.70
2017-09-22T12:40:22.841Z,24.80
2017-09-22T12:42:50.710Z,24.80
2017-09-22T12:45:18.576Z,24.80
2017-09-22T12:47:46.546Z,24.70
2017-09-22T12:50:14.413Z,24.50
2017-09-22T12:52:42.383Z,24.20
2017-09-22T12:55:10.250Z,24.20
2017-09-22T12:57:38.118Z,24.30
2017-09-22T13:00:05.985Z,24.20
2017-09-22T13:02:33.852Z,24.10
2017-09-22T13:05:01.719Z,24.10
2017-09-22T13:07:29.587Z,24.40
2017-09-22T13:09:57.491Z,24.50
2017-09-22T13:12:26.141Z,24.60
2017-09-22T13:14:54.007Z,24.60
2017-09-22T13:17:21.876Z,24.70
2017-09-22T13:19:49.743Z,24.80
2017-09-22T13:22:17.814Z,25.10
2017-09-22T13:24:45.682Z,25.40
2017-09-22T13:27:13.549Z,25.80
2017-09-22T13:29:41.419Z,26.20
2017-09-22T13:32:09.285Z,26.50
2017-09-22T13:34:37.253Z,26.80
2017-09-22T13:37:05.122Z,27.00
2017-09-22T13:39:32.988Z,26.50
2017-09-22T13:42:00.856Z,26.20
2017-09-22T13:44:28.722Z,25.90
2017-09-22T13:46:56.692Z,25.80
2017-09-22T13:49:24.559Z,25.70
2017-09-22T13:51:52.428Z,25.50
2017-09-22T13:54:20.294Z,25.50
2017-09-22T13:56:48.164Z,25.50
2017-09-22T13:59:16.029Z,25.60
2017-09-22T14:01:43.898Z,25.30
2017-09-22T14:04:11.763Z,24.90
2017-09-22T14:06:39.632Z,24.50
2017-09-22T14:09:07.601Z,24.00
2017-09-22T14:11:35.468Z,23.60
2017-09-22T14:14:03.546Z,23.30
2017-09-22T14:16:31.410Z,23.10
2017-09-22T14:18:59.277Z,23.00
2017-09-22T14:21:27.346Z,22.80
2017-09-22T14:23:55.213Z,22.70
2017-09-22T14:26:23.184Z,22.50
2017-09-22T14:28:51.050Z,22.30
2017-09-22T14:31:18.919Z,22.10
2017-09-22T14:33:46.990Z,22.10
2017-09-22T14:36:14.857Z,21.90
2017-09-22T14:38:42.724Z,21.80
2017-09-22T14:41:10.592Z,21.70
2017-09-22T14:43:38.459Z,21.60
2017-09-22T14:46:06.326Z,21.50
2017-09-22T14:48:34.193Z,21.50
2017-09-22T14:51:02.061Z,21.40
2017-09-22T14:53:29.927Z,21.30
2017-09-22T14:55:57.795Z,21.20
2017-09-22T14:58:25.663Z,21.20
2017-09-22T15:00:53.531Z,21.20
2017-09-22T15:03:23.169Z,21.20
2017-09-22T15:05:53.054Z,21.10
2017-09-22T15:08:20.770Z,21.10
2017-09-22T15:10:48.499Z,21.10
2017-09-22T15:13:16.245Z,21.10
2017-09-22T15:15:43.975Z,21.10
2017-09-22T15:18:11.899Z,21.20
2017-09-22T15:20:39.641Z,21.20
2017-09-22T15:23:07.378Z,21.30
2017-09-22T15:25:35.098Z,21.30
2017-09-22T15:28:03.601Z,21.30
2017-09-22T15:30:32.243Z,21.30
2017-09-22T15:32:59.970Z,21.30
2017-09-22T15:35:27.714Z,21.30
2017-09-22T15:37:56.253Z,21.30
2017-09-22T15:40:24.119Z,21.20
2017-09-22T15:42:51.979Z,21.20
2017-09-22T15:45:19.698Z,21.10
2017-09-22T15:47:47.612Z,21.00
2017-09-22T15:50:15.341Z,20.90
2017-09-22T15:52:43.060Z,20.80
2017-09-22T15:55:10.779Z,20.70
2017-09-22T15:57:38.498Z,20.80
2017-09-22T16:00:06.224Z,20.90
2017-09-22T16:02:34.103Z,20.90
2017-09-22T16:05:01.971Z,20.80
2017-09-22T16:07:29.837Z,20.70
2017-09-22T16:09:57.706Z,20.60
2017-09-22T16:12:25.572Z,20.50
2017-09-22T16:14:53.440Z,20.50
2017-09-22T16:17:21.307Z,20.50
2017-09-22T16:19:49.174Z,20.30
2017-09-22T16:22:17.035Z,20.30
2017-09-22T16:24:44.909Z,20.40
2017-09-22T16:27:12.776Z,20.40
2017-09-22T16:29:41.566Z,20.40
2017-09-22T16:32:09.433Z,20.40
2017-09-22T16:34:37.300Z,20.40
2017-09-22T16:37:05.478Z,20.40
2017-09-22T16:39:33.342Z,20.40
2017-09-22T16:42:01.210Z,20.40
2017-09-22T16:44:29.077Z,20.40
2017-09-22T16:46:57.046Z,20.30
2017-09-22T16:49:24.914Z,20.30
2017-09-22T16:51:52.884Z,20.30
2017-09-22T16:54:20.750Z,20.30
2017-09-22T16:56:48.618Z,20.30
2017-09-22T16:59:16.484Z,20.30
2017-09-22T17:01:44.352Z,20.30
2017-09-22T17:04:12.217Z,20.20
2017-09-22T17:06:40.087Z,20.10
2017-09-22T17:09:07.888Z,20.00
2017-09-22T17:11:36.537Z,20.00
2017-09-22T17:14:04.405Z,20.00
2017-09-22T17:16:32.273Z,20.00
2017-09-22T17:19:00.141Z,20.00
2017-09-22T17:21:28.315Z,19.90
2017-09-22T17:23:56.182Z,19.90
2017-09-22T17:26:24.053Z,19.80
2017-09-22T17:28:52.022Z,19.70
2017-09-22T17:31:19.887Z,19.60
2017-09-22T17:33:47.754Z,19.50
2017-09-22T17:36:15.621Z,19.40
2017-09-22T17:38:43.490Z,19.30
2017-09-22T17:41:11.559Z,19.20
2017-09-22T17:43:39.434Z,19.10
2017-09-22T17:46:07.296Z,19.00
2017-09-22T17:48:35.162Z,18.90
2017-09-22T17:51:03.030Z,18.80
2017-09-22T17:53:30.897Z,18.70
2017-09-22T17:55:58.765Z,18.60
2017-09-22T17:58:26.631Z,18.60
2017-09-22T18:00:54.498Z,18.40
2017-09-22T18:03:22.399Z,18.40
2017-09-22T18:05:51.053Z,18.10
2017-09-22T18:08:18.920Z,18.10
2017-09-22T18:10:46.780Z,18.00
2017-09-22T18:13:14.655Z,17.90
2017-09-22T18:15:42.521Z,17.90
2017-09-22T18:18:10.389Z,17.80
2017-09-22T18:20:38.257Z,17.70
2017-09-22T18:23:06.136Z,17.60
2017-09-22T18:25:34.013Z,17.50
2017-09-22T18:28:02.681Z,17.40
2017-09-22T18:30:30.750Z,17.30
2017-09-22T18:32:58.655Z,17.30
2017-09-22T18:35:27.405Z,17.00
2017-09-22T18:37:55.278Z,17.00
2017-09-22T18:40:23.144Z,17.00
2017-09-22T18:42:51.111Z,16.90
2017-09-22T18:45:18.987Z,16.80
2017-09-22T18:47:46.952Z,16.70
2017-09-22T18:50:14.919Z,16.60
2017-09-22T18:52:42.801Z,16.60
2017-09-22T18:55:11.985Z,16.40
2017-09-22T18:57:40.159Z,16.40
2017-09-22T19:00:08.229Z,16.30
2017-09-22T19:02:36.198Z,16.20
2017-09-22T19:05:04.066Z,16.10
2017-09-22T19:07:32.036Z,16.00
2017-09-22T19:09:59.902Z,16.00
2017-09-22T19:12:28.077Z,16.00
2017-09-22T19:14:56.047Z,15.90
2017-09-22T19:17:24.119Z,15.80
2017-09-22T19:19:51.986Z,15.80
2017-09-22T19:22:19.853Z,15.80
2017-09-22T19:24:47.823Z,15.80
2017-09-22T19:27:15.691Z,15.70
2017-09-22T19:29:43.559Z,15.70
2017-09-22T19:32:11.534Z,15.60
2017-09-22T19:34:39.549Z,15.60
2017-09-22T19:37:08.184Z,15.40
2017-09-22T19:39:36.052Z,15.40
2017-09-22T19:42:04.123Z,15.40
2017-09-22T19:44:32.196Z,15.40
2017-09-22T19:47:00.268Z,15.30
2017-09-22T19:49:28.135Z,15.20
2017-09-22T19:51:56.004Z,15.20
2017-09-22T19:54:24.074Z,15.10
2017-09-22T19:56:52.043Z,15.00
2017-09-22T19:59:20.116Z,15.00
2017-09-22T20:01:47.983Z,14.90
2017-09-22T20:04:15.849Z,14.90
2017-09-22T20:06:43.717Z,14.80
2017-09-22T20:09:11.790Z,14.80
2017-09-22T20:11:39.762Z,14.70
2017-09-22T20:14:08.053Z,14.70
2017-09-22T20:16:36.034Z,14.60
2017-09-22T20:19:03.794Z,14.60
2017-09-22T20:21:31.759Z,14.60
2017-09-22T20:23:59.607Z,14.60
2017-09-22T20:26:27.782Z,14.60
2017-09-22T20:28:55.854Z,14.50
2017-09-22T20:31:23.824Z,14.50
2017-09-22T20:33:51.794Z,14.40
2017-09-22T20:36:19.666Z,14.40
2017-09-22T20:38:47.667Z,14.30
2017-09-22T20:41:16.157Z,14.40
2017-09-22T20:43:44.798Z,14.30
2017-09-22T20:46:12.665Z,14.30
2017-09-22T20:48:40.533Z,14.30
2017-09-22T20:51:14.647Z,14.20
2017-09-22T20:53:42.718Z,14.20
2017-09-22T20:56:10.585Z,14.10
2017-09-22T20:58:38.453Z,14.10
2017-09-22T21:01:06.321Z,14.00
2017-09-22T21:03:34.191Z,14.00
2017-09-22T21:06:02.055Z,13.90
2017-09-22T21:08:29.923Z,13.90
2017-09-22T21:10:57.891Z,13.80
2017-09-22T21:13:25.626Z,13.80
2017-09-22T21:15:53.347Z,13.80
2017-09-22T21:18:21.838Z,13.60
2017-09-22T21:20:50.336Z,13.60
2017-09-22T21:23:18.149Z,13.60
2017-09-22T21:25:46.018Z,13.60
2017-09-22T21:28:13.884Z,13.50
2017-09-22T21:30:41.752Z,13.50
2017-09-22T21:33:09.642Z,13.50
2017-09-22T21:35:37.486Z,13.40
2017-09-22T21:38:05.354Z,13.40
2017-09-22T21:40:33.426Z,13.40
2017-09-22T21:43:01.293Z,13.30
2017-09-22T21:45:29.160Z,13.30
2017-09-22T21:47:57.163Z,13.30
2017-09-22T21:50:25.817Z,13.30
2017-09-22T21:52:53.684Z,13.30
2017-09-22T21:55:21.482Z,13.40
2017-09-22T21:57:50.037Z,13.50
2017-09-22T22:00:17.902Z,13.50
2017-09-22T22:02:46.314Z,13.50
2017-09-22T22:05:20.603Z,13.60
2017-09-22T22:07:48.483Z,13.50
2017-09-22T22:10:16.439Z,13.60
2017-09-22T22:12:44.202Z,13.60
2017-09-22T22:15:12.068Z,13.60
2017-09-22T22:17:39.936Z,13.60
2017-09-22T22:20:07.803Z,13.60
2017-09-22T22:22:35.670Z,13.60
2017-09-22T22:25:03.541Z,13.60
2017-09-22T22:27:31.279Z,13.60
2017-09-22T22:29:59.003Z,13.60
2017-09-22T22:32:27.651Z,13.60
2017-09-22T22:34:55.518Z,13.60
2017-09-22T22:37:31.375Z,13.50
2017-09-22T22:39:59.240Z,13.50
2017-09-22T22:42:27.107Z,13.50
2017-09-22T22:44:54.974Z,13.50
2017-09-22T22:47:22.841Z,13.50
2017-09-22T22:49:50.709Z,13.40
2017-09-22T22:52:18.576Z,13.40
2017-09-22T22:54:46.444Z,13.40
2017-09-22T22:57:14.311Z,13.40
2017-09-22T22:59:42.179Z,13.40
2017-09-22T23:02:10.045Z,13.30
2017-09-22T23:04:38.015Z,13.30
2017-09-22T23:07:05.883Z,13.20
2017-09-22T23:09:33.753Z,13.20
2017-09-22T23:12:01.617Z,13.20
2017-09-22T23:14:29.485Z,13.10
2017-09-22T23:16:57.357Z,13.10
2017-09-22T23:19:25.220Z,13.10
2017-09-22T23:21:53.087Z,13.10
2017-09-22T23:24:20.854Z,13.00
2017-09-22T23:26:48.717Z,13.00
2017-09-22T23:29:16.586Z,13.00
2017-09-22T23:31:44.452Z,13.00
2017-09-22T23:34:12.324Z,13.00
2017-09-22T23:36:40.188Z,13.00
2017-09-22T23:39:08.058Z,12.90
2017-09-22T23:41:35.923Z,12.80
2017-09-22T23:44:03.790Z,12.80
2017-09-22T23:46:31.658Z,12.80
2017-09-22T23:48:59.530Z,12.80
2017-09-22T23:51:27.392Z,12.60
2017-09-22T23:53:55.259Z,12.60
2017-09-22T23:56:23.126Z,12.70
2017-09-22T23:58:50.995Z,12.60
